Tiempo atmosférico en la estación meteorológica de Bañobárez, Salamanca (748 m.)



Fecha
DESCASC
Temp. máxima en grados centígrados (hora)
DESCASC
Temp. mínima en grados centígrados (hora)
DESCASC
Temp. media en grados centígrados
DESCASC
Racha de viento máxima en m/sg (hora)
DESCASC
Velocidad máxima media en intervalos de 10 minutos(hora)
DESCASC
Precipitaciones diarias en mm
DESCASC
Precipitaciones de 00:00 a 06:00 en mm
DESCASC
Precipitaciones de 06:00 a 12:00 en mm
DESCASC
Precipitaciones de 12:00 a 18:00 en mm
DESCASC
Precipitaciones de 18:00 a 24:00 en mm
DESCASC
17-10-2019 18 (15:30) 11.9 (05:00) 14.9 10.83 (02:40) 6.11 (01:20) 17.8 2.2 4.8 3.2 7.6
16-10-2019 16.3 (16:10) 6.7 (07:50) 11.5 10.28 (16:00) 6.11 (13:20) 0 0 0 0 0
15-10-2019 15.1 (16:20) 4.6 (08:30) 9.9 8.89 (17:00) 5.28 (17:00) 0 0 0 0 0
14-10-2019 13.9 (01:40) 7.1 (23:30) 10.5 18.89 (06:50) 9.17 (06:50) 11.6 0 8.6 3 0
13-10-2019 20.2 (16:30) 12.6 (00:00) 16.4 12.5 (12:30) 7.5 (12:20) 0 0 0 0 0
12-10-2019 25.8 (17:10) 15.3 (00:00) 20.5 15.56 (17:00) 8.89 (16:50) 0 0 0 0 0
10-10-2019 25.2 (17:50) 7.6 (00:00) 16.4 8.33 (10:50) 4.44 (10:50) 0 0 0 0 0
09-10-2019 22.5 (17:30) 8.5 (00:00) 15.5 6.39 (18:50) 3.89 (18:50) 0 0 0 0 0
08-10-2019 27.5 (17:30) 10.7 (00:00) 19.1 7.22 (19:00) 4.44 (19:20) 0 0 0 0 0
07-10-2019 27.6 (17:20) 8.5 (00:00) 18.1 5.56 (17:20) 2.78 (17:30) 0 0 0 0 0
06-10-2019 24.7 (17:10) 7.6 (00:00) 16.2 5.83 (18:20) 3.33 (17:50) 0 0 0 0 0
05-10-2019 22.1 (18:10) 7.8 (05:40) 15 5.83 (17:50) 3.33 (18:00) 0 0 0 0 0
04-10-2019 23.7 (18:00) 10.7 (00:00) 17.2 7.22 (17:50) 3.61 (18:40) 0 0 0 0 0
03-10-2019 24.6 (17:20) 6.4 (00:00) 15.5 6.94 (16:00) 4.17 (14:30) 0 0 0 0 0
02-10-2019 21.2 (18:50) 5.4 (00:00) 13.3 5.56 (11:50) 3.33 (01:50) 0 0 0 0 0
01-10-2019 22.4 (17:00) 13.1 (00:00) 17.8 10 (16:10) 5.83 (17:50) 0 0 0 0 0
30-09-2019 28.3 (17:00) 10.3 (00:00) 19.3 9.17 (16:40) 5.28 (17:30) 0 0 0 0 0
29-09-2019 27.2 (18:00) 8.6 (00:00) 17.9 6.39 (15:30) 3.33 (18:40) 0 0 0 0 0
28-09-2019 27.1 (17:50) 7.7 (00:00) 17.4 5 (17:50) 2.78 (17:50) 0 0 0 0 0
27-09-2019 23.5 (17:30) 6.7 (00:00) 15.1 8.06 (16:10) 4.72 (16:10) 0 0 0 0 0
26-09-2019 25.1 (18:20) 7.8 (00:00) 16.5 6.94 (16:20) 3.89 (15:30) 0 0 0 0 0
25-09-2019 20.9 (18:00) 6.1 (00:00) 13.5 7.78 (13:40) 4.44 (11:00) 0 0 0 0 0
24-09-2019 21.1 (17:50) 10.7 (00:00) 15.9 11.39 (16:40) 7.22 (19:20) 0 0 0 0 0
23-09-2019 22.6 (17:40) 8.5 (00:00) 15.6 7.78 (18:40) 4.72 (18:30) 0 0 0 0 0
22-09-2019 19.1 (17:50) 9.9 (00:00) 14.5 8.89 (15:10) 5.28 (15:10) 0 0 0 0 0
21-09-2019 18.4 (14:10) 12.8 (00:00) 15.6 14.72 (13:40) 8.61 (13:40) 5.8 0 0.6 0.4 4.8
20-09-2019 25.2 (16:00) 14.2 (00:00) 19.7 11.11 (15:20) 5.83 (16:10) 0 0 0 0 0

Gráficas

Temp. máximas Temp. mínimas Temp. medias Precipitaciones Rachas de viento máximas Velocidades máximas media en intervalos de 10 minutos

Datos horarios

Fecha y hora oficial Temperatura (ºC) Velocidad del viento (km/h) Dirección del viento Racha (km/h) Dirección de racha Precipitación (mm) Presión (hPa) Tendencia (hPa) Humedad (%)
2019-10-19 23:00:00 9.3 14 Oeste 26 Oeste 0 -- -- 88
2019-10-19 22:00:00 9.9 16 Oeste 32 Oeste 0 -- -- 88
2019-10-19 21:00:00 11.4 23 Oeste 44 Oeste 0 -- -- 85
2019-10-19 20:00:00 12.9 30 Sudoeste 49 Oeste 0 -- -- 82
2019-10-19 19:00:00 13.2 22 Sur 36 Sur 0 -- -- 86
2019-10-19 18:00:00 13 23 Sur 45 Sur 0 -- -- 85
2019-10-19 17:00:00 13.1 22 Sur 50 Sur 0 -- -- 84
2019-10-19 16:00:00 12.4 26 Sur 49 Sur 0.2 -- -- 88
2019-10-19 15:00:00 13.1 28 Sur 44 Sudoeste 0 -- -- 84
2019-10-19 14:00:00 12.7 31 Sudoeste 50 Sudoeste 0 -- -- 83
2019-10-19 13:00:00 13.4 28 Sur 50 Sur 0 -- -- 79
2019-10-19 12:00:00 11.6 23 Sur 39 Sur 0 -- -- 88
2019-10-19 11:00:00 11 15 Sur 32 Sur 0 -- -- 93
2019-10-19 10:00:00 11 14 Sur 32 Sur 0 -- -- 90
2019-10-19 09:00:00 10.7 20 Sur 30 Sur 0 -- -- 88
2019-10-19 08:00:00 10.6 13 Sur 26 Sur 0 -- -- 87
2019-10-19 07:00:00 10.6 12 Sur 23 Sur 0 -- -- 87
2019-10-19 06:00:00 10.6 13 Sudoeste 24 Sudoeste 0 -- -- 88
2019-10-19 05:00:00 10.5 8 Sur 22 Sur 0 -- -- 89
2019-10-19 04:00:00 10.4 12 Sur 22 Sudoeste 0 -- -- 91
2019-10-19 03:00:00 10.3 6 Sudoeste 14 Sudoeste 0 -- -- 90
2019-10-19 02:00:00 10.9 6 Sudoeste 20 Sudoeste 0 -- -- 88
2019-10-19 01:00:00 11.2 9 Oeste 22 Sudoeste 0 -- -- 88
2019-10-19 00:00:00 11.5 13 Oeste 23 Oeste 0 -- -- 88
2019-10-18 23:00:00 11.9 8 Oeste 13 Oeste 0 -- -- 85
2019-10-18 22:00:00 12.1 7 Sudoeste 15 Sudoeste 0 -- -- 79
2019-10-18 21:00:00 12.8 5 Sudoeste 10 Oeste 0 -- -- 75
2019-10-18 20:00:00 13.5 8 Oeste 22 Oeste 0 -- -- 71
2019-10-18 19:00:00 14 14 Oeste 22 Oeste 0 -- -- 69
2019-10-18 18:00:00 14.8 13 Oeste 29 Oeste 0 -- -- 68
2019-10-18 17:00:00 15.3 13 Oeste 24 Oeste 0 -- -- 68
2019-10-18 16:00:00 15.2 9 Oeste 19 Oeste 0 -- -- 69
2019-10-18 15:00:00 15.3 9 Oeste 19 Oeste 0 -- -- 69
2019-10-18 14:00:00 14.2 10 Oeste 16 Oeste 0 -- -- 69
2019-10-18 13:00:00 13.3 5 Oeste 11 Noroeste 0 -- -- 75
2019-10-18 12:00:00 12.2 7 Noroeste 12 Noroeste 0 -- -- 82
2019-10-18 11:00:00 11 7 Noroeste 13 Noroeste 0 -- -- 89
2019-10-18 10:00:00 10.6 6 Oeste 13 Oeste 0 -- -- 94
2019-10-18 09:00:00 10.5 9 Noroeste 18 Noroeste 0 -- -- 95
2019-10-18 08:00:00 11.1 10 Noroeste 18 Noroeste 0 -- -- 97
2019-10-18 07:00:00 11.7 11 Noroeste 21 Noroeste 0 -- -- 96
2019-10-18 06:00:00 12.7 12 Noroeste 23 Oeste 0 -- -- 96
2019-10-18 05:00:00 13.6 12 Oeste 27 Noroeste 0 -- -- 96
2019-10-18 04:00:00 14.4 17 Oeste 29 Oeste 0 -- -- 96
2019-10-18 03:00:00 15 10 Oeste 22 Oeste 4.4 -- -- 96
2019-10-18 02:00:00 15.2 6 Sudoeste 20 Sudoeste 0.4 -- -- 96
2019-10-18 01:00:00 15.2 12 Sur 22 Sur 0 -- -- 96
2019-10-18 00:00:00 15.2 12 Sur 24 Sur 0 -- -- 95
2019-10-17 23:00:00 15.3 15 Sudoeste 29 Sudoeste 0 -- -- 95
2019-10-17 22:00:00 14.8 8 Sur 14 Sur 0 -- -- 96
2019-10-17 21:00:00 14.6 9 Sur 22 Sudoeste 1 -- -- 96
2019-10-17 20:00:00 14.8 13 Sudoeste 24 Sur 6.6 -- -- 94
2019-10-17 19:00:00 15.4 9 Sur 21 Sur 0 -- -- 93
2019-10-17 18:00:00 15.1 13 Sur 27 Sudoeste 3.2 -- -- 94
2019-10-17 17:00:00 16.8 17 Sudoeste 29 Sudoeste 0 -- -- 84
2019-10-17 16:00:00 17.9 17 Sudoeste 29 Sudoeste 0 -- -- 76
2019-10-17 15:00:00 17.5 19 Sudoeste 29 Sudoeste 0 -- -- 77
2019-10-17 14:00:00 16.8 12 Sudoeste 24 Sudoeste 0 -- -- 82
2019-10-17 13:00:00 15.7 15 Sudoeste 25 Sudoeste 0 -- -- 88
2019-10-17 12:00:00 14.8 15 Sudoeste 23 Sudoeste 0 -- -- 92
2019-10-17 11:00:00 13.5 14 Sudoeste 22 Sur 0 -- -- 96
2019-10-17 10:00:00 12.8 11 Sur 21 Sur 0 -- -- 96
2019-10-17 09:00:00 12.5 11 Sur 21 Sur 0 -- -- 96
2019-10-17 08:00:00 12.4 12 Sudoeste 25 Sur 1.6 -- -- 96
2019-10-17 07:00:00 12.1 15 Sur 26 Sur 3.2 -- -- 95
2019-10-17 06:00:00 12 15 Sur 29 Sur 0.2 -- -- 94
2019-10-17 05:00:00 11.9 18 Sur 32 Sur 1.2 -- -- 93
2019-10-17 04:00:00 12.4 17 Sur 33 Sur 0.4 -- -- 88
2019-10-17 03:00:00 12.8 19 Sur 39 Sur 0 -- -- 83
2019-10-17 02:00:00 12.4 15 Sur 36 Sur 0.4 -- -- 86
2019-10-17 01:00:00 13.5 18 Sur 35 Sur 0 -- -- 76
2019-10-17 00:00:00 13.4 19 Sur 31 Sudoeste 0 -- -- 76
2019-10-16 23:00:00 13.6 18 Sudoeste 34 Sudoeste 0 -- -- 75
2019-10-16 22:00:00 13.6 14 Sur 27 Sur 0 -- -- 74
2019-10-16 21:00:00 13.6 17 Sudoeste 29 Sudoeste 0 -- -- 75
2019-10-16 20:00:00 13.9 13 Sudoeste 27 Sudoeste 0 -- -- 73
2019-10-16 19:00:00 14.2 16 Sudoeste 30 Sudoeste 0 -- -- 70
2019-10-16 18:00:00 14.8 16 Sudoeste 31 Sudoeste 0 -- -- 68
2019-10-16 17:00:00 15.5 19 Sudoeste 32 Sudoeste 0 -- -- 65
2019-10-16 16:00:00 15.8 19 Sudoeste 37 Oeste 0 -- -- 63
2019-10-16 15:00:00 15.4 18 Sur 35 Sudoeste 0 -- -- 65
2019-10-16 14:00:00 14.9 19 Sudoeste 35 Sudoeste 0 -- -- 64
2019-10-16 13:00:00 14.4 21 Sudoeste 34 Sur 0 -- -- 66
2019-10-16 12:00:00 12.9 15 Sur 28 Sur 0 -- -- 74
2019-10-16 11:00:00 10.8 17 Sur 29 Sur 0 -- -- 83
2019-10-16 10:00:00 8.6 10 Sur 19 Sur 0 -- -- 90
2019-10-16 09:00:00 7.3 8 Sur 15 Sur 0 -- -- 92
2019-10-16 08:00:00 7 6 Sur 10 Sur 0 -- -- 91
2019-10-16 07:00:00 7.3 4 Sur 11 Sudoeste 0 -- -- 90
2019-10-16 06:00:00 7.9 9 Sur 15 Sur 0 -- -- 89
2019-10-16 05:00:00 8.5 5 Sur 15 Sur 0 -- -- 87
2019-10-16 04:00:00 8 8 Sur 12 Sur 0 -- -- 90
2019-10-16 03:00:00 8.6 4 Sur 10 Sudoeste 0 -- -- 86
2019-10-16 02:00:00 9 5 Sur 10 Sudoeste 0 -- -- 87
2019-10-16 01:00:00 9.9 3 Sudoeste 10 Sur 0 -- -- 85
2019-10-16 00:00:00 10.1 8 Sur 15 Sur 0 -- -- 84
2019-10-15 23:00:00 10.7 5 Sur 12 Oeste 0 -- -- 81
2019-10-15 22:00:00 11.4 4 Oeste 18 Oeste 0 -- -- 76
2019-10-15 21:00:00 12.3 11 Oeste 19 Oeste 0 -- -- 70
2019-10-15 20:00:00 13.1 9 Oeste 21 Sudoeste 0 -- -- 64
2019-10-15 19:00:00 13.9 12 Sudoeste 28 Oeste 0 -- -- 57
2019-10-15 18:00:00 14.4 17 Oeste 30 Oeste 0 -- -- 58
2019-10-15 17:00:00 14.4 19 Oeste 32 Oeste 0 -- -- 56
2019-10-15 16:00:00 14.4 19 Oeste 31 Oeste 0 -- -- 54
2019-10-15 15:00:00 14.2 16 Oeste 32 Sudoeste 0 -- -- 56
2019-10-15 14:00:00 12.9 9 Oeste 20 Oeste 0 -- -- 63
2019-10-15 13:00:00 12 9 Sudoeste 22 Sudoeste 0 -- -- 70
2019-10-15 12:00:00 11 15 Sudoeste 21 Sudoeste 0 -- -- 78
2019-10-15 11:00:00 9.4 13 Sudoeste 19 Sudoeste 0 -- -- 84
2019-10-15 10:00:00 7.2 6 Sur 12 Sudoeste 0 -- -- 95
2019-10-15 09:00:00 4.8 8 Sur 11 Sur 0 -- -- 96
2019-10-15 08:00:00 5.2 8 Sudoeste 13 Sudoeste 0 -- -- 96
2019-10-15 07:00:00 4.8 8 Sur 15 Sur 0 -- -- 96
2019-10-15 06:00:00 5.3 9 Sur 14 Sudoeste 0 -- -- 95
2019-10-15 05:00:00 5.2 8 Sur 13 Sur 0 -- -- 95
2019-10-15 04:00:00 6.1 6 Oeste 13 Oeste 0 -- -- 92
2019-10-15 03:00:00 6 9 Oeste 14 Sudoeste 0 -- -- 91
2019-10-15 02:00:00 6.5 6 Oeste 14 Oeste 0 -- -- 87
2019-10-15 01:00:00 7.4 7 Oeste 15 Sudoeste 0 -- -- 85
2019-10-15 00:00:00 7.2 9 Sudoeste 16 Oeste 0 -- -- 84
2019-10-14 23:00:00 7.3 8 Oeste 18 Oeste 0 -- -- 81
2019-10-14 22:00:00 7.6 14 Oeste 27 Oeste 0 -- -- 78
2019-10-14 21:00:00 8.1 13 Oeste 27 Noroeste 0 -- -- 80
2019-10-14 20:00:00 9.2 17 Oeste 37 Oeste 0 -- -- 73
2019-10-14 19:00:00 10.9 21 Oeste 35 Oeste 0 -- -- 68
2019-10-14 18:00:00 10.6 18 Oeste 31 Oeste 0.2 -- -- 88
2019-10-14 17:00:00 10.7 20 Oeste 35 Oeste 0 -- -- 86
2019-10-14 16:00:00 10.6 18 Oeste 48 Oeste 0.6 -- -- 84
2019-10-14 15:00:00 11.5 15 Sudoeste 37 Sudoeste 0 -- -- 89
2019-10-14 14:00:00 10.9 17 Sudoeste 31 Sudoeste 1.6 -- -- 93
2019-10-14 13:00:00 10.9 18 Sudoeste 38 Sur 0.6 -- -- 89
2019-10-14 12:00:00 11.8 22 Sur 39 Sudoeste 0 -- -- 81
2019-10-14 11:00:00 11.5 16 Sur 28 Sur 0 -- -- 91
2019-10-14 10:00:00 10.2 13 Sudoeste 23 Sur 0 -- -- 94
2019-10-14 09:00:00 10.1 10 Sudoeste 22 Sudoeste 1 -- -- 95
2019-10-14 08:00:00 9.9 5 Oeste 30 Oeste 2.4 -- -- 94
2019-10-14 07:00:00 10.6 27 Noroeste 68 Oeste 5.2 -- -- 92
2019-10-14 06:00:00 13.4 7 Sur 24 Sur 0 -- -- 84
2019-10-14 05:00:00 13.7 15 Sudoeste 27 Sudoeste 0 -- -- 82
2019-10-14 04:00:00 13.3 12 Sudoeste 18 Sudoeste 0 -- -- 81
2019-10-14 03:00:00 13.6 6 Sudoeste 15 Sur 0 -- -- 77
2019-10-14 02:00:00 13.9 8 Sudoeste 17 Sudoeste 0 -- -- 74
2019-10-14 01:00:00 13.1 5 Sur 10 Sur 0 -- -- 77
2019-10-14 00:00:00 13.4 4 Sur 10 Sur 0 -- -- 76
2019-10-13 23:00:00 14.1 4 Sur 9 Sur 0 -- -- 75
2019-10-13 22:00:00 14.2 5 Sur 11 Sur 0 -- -- 73
2019-10-13 21:00:00 15.4 7 Sur 23 Sudoeste 0 -- -- 68
2019-10-13 20:00:00 17 15 Sudoeste 37 Sur 0 -- -- 62
2019-10-13 19:00:00 18.2 20 Sur 40 Sur 0 -- -- 58
2019-10-13 18:00:00 19.1 22 Sur 44 Sur 0 -- -- 56
2019-10-13 17:00:00 20 22 Sur 39 Sur 0 -- -- 54
2019-10-13 16:00:00 19.1 18 Sur 35 Sur 0 -- -- 58
2019-10-13 15:00:00 19 22 Sur 44 Sur 0 -- -- 57
2019-10-13 14:00:00 18 24 Sudoeste 45 Sur 0 -- -- 60
2019-10-13 13:00:00 18 27 Sur 45 Sur 0 -- -- 61
2019-10-13 12:00:00 16.1 23 Sur 36 Sur 0 -- -- 72
2019-10-13 11:00:00 15.7 21 Sur 34 Sur 0 -- -- 73
2019-10-13 10:00:00 13.9 19 Sur 32 Sur 0 -- -- 81
2019-10-13 09:00:00 13.4 14 Sur 28 Sur 0 -- -- 82
2019-10-13 08:00:00 13.3 11 Sur 27 Sur 0 -- -- 82
2019-10-13 07:00:00 13.1 11 Sur 26 Sur 0 -- -- 82
2019-10-13 06:00:00 12.9 13 Sur 29 Sudoeste 0 -- -- 84
2019-10-13 05:00:00 12.6 16 Sudoeste 36 Sudoeste 0 -- -- 85
2019-10-13 04:00:00 14 14 Sudoeste 31 Sudoeste 0 -- -- 83
2019-10-13 03:00:00 14.2 14 Sudoeste 25 Sur 0 -- -- 83
2019-10-13 02:00:00 14.3 10 Sur 27 Sudoeste 0 -- -- 81
2019-10-13 01:00:00 15.4 15 Sudoeste 31 Sudoeste 0 -- -- 80
2019-10-13 00:00:00 17 15 Sudoeste 33 Sudoeste 0 -- -- 76
2019-10-12 23:00:00 17.9 12 Sudoeste 21 Sudoeste 0 -- -- 76
2019-10-12 22:00:00 19.5 11 Oeste 23 Sudoeste 0 -- -- 63
2019-10-12 21:00:00 21.2 12 Sudoeste 36 Sudoeste 0 -- -- 48
2019-10-12 20:00:00 22.5 24 Sudoeste 47 Sur 0 -- -- 44
2019-10-12 19:00:00 24.3 27 Sudoeste 50 Sudoeste 0 -- -- 39
2019-10-12 18:00:00 25.4 28 Sudoeste 50 Sur 0 -- -- 36
2019-10-12 17:00:00 25.7 28 Sur 56 Sudoeste 0 -- -- 38
2019-10-12 16:00:00 25.2 30 Sudoeste 50 Sudoeste 0 -- -- 40
2019-10-12 15:00:00 24.7 32 Sur 50 Sur 0 -- -- 42
2019-10-12 14:00:00 24.2 28 Sur 54 Sudoeste 0 -- -- 45
2019-10-12 13:00:00 22.2 28 Sur 52 Sur 0 -- -- 51
2019-10-12 12:00:00 23 23 Sur 44 Sur 0 -- -- 49
2019-10-12 11:00:00 20.5 15 Sur 28 Sudoeste 0 -- -- 61
2019-10-12 10:00:00 18.2 13 Sur 22 Sur 0 -- -- 70
2019-10-12 09:00:00 16.7 14 Sur 26 Sur 0 -- -- 76
2019-10-12 08:00:00 15.7 7 Sudoeste 14 Sur 0 -- -- 79
2019-10-12 07:00:00 15.9 4 Sudoeste 14 Sur 0 -- -- 77
2019-10-12 06:00:00 16.6 9 Sur 19 Sur 0 -- -- 74
2019-10-12 05:00:00 16.8 9 Sudoeste 21 Sur 0 -- -- 75
2019-10-12 04:00:00 17.5 10 Sur 22 Sur 0 -- -- 67
2019-10-12 03:00:00 18.1 13 Sur 27 Sur 0 -- -- 62
2019-10-12 02:00:00 18.7 11 Sur 23 Sudoeste 0 -- -- 59
2019-10-12 01:00:00 19.2 14 Sudoeste 24 Sudoeste 0 -- -- 54
2019-10-12 00:00:00 18.2 10 Sur 18 Sur 0 -- -- 57
2019-10-11 23:00:00 18.6 7 Sur 19 Sur 0 -- -- 59
2019-10-11 22:00:00 18.5 4 Sur 10 Sur 0 -- -- 61
2019-10-11 21:00:00 20.1 7 Sur 19 Sudoeste 0 -- -- 56
2019-10-11 20:00:00 22.4 12 Sur 26 Sur 0 -- -- 50
2019-10-11 19:00:00 24.6 15 Sur 29 Sur 0 -- -- 44
2019-10-11 18:00:00 24.7 15 Sudoeste 32 Sur 0 -- -- 45
2019-10-11 17:00:00 26 21 Sur 36 Sudoeste 0 -- -- 42
2019-10-11 16:00:00 26.7 17 Sur 32 Sur 0 -- -- 40
2019-10-11 15:00:00 26.2 16 Sur 29 Sur 0 -- -- 41
2019-10-11 14:00:00 25.8 18 Sur 28 Sur 0 -- -- 41
2019-10-11 13:00:00 25.3 15 Sur 27 Sudoeste 0 -- -- 43
2019-10-11 12:00:00 23.7 17 Sur 30 Sur 0 -- -- 49
2019-10-11 11:00:00 20.1 10 Sur 16 Sur 0 -- -- 55
2019-10-11 10:00:00 16.3 2 Este 5 Este 0 -- -- 61
2019-10-11 09:00:00 11.2 3 Sudeste 4 Sur 0 -- -- 75
2019-10-11 08:00:00 10.6 3 Sudeste 8 Sudeste 0 -- -- 74
2019-10-11 07:00:00 10.6 4 Sudeste 6 Sudeste 0 -- -- 73
2019-10-11 06:00:00 11.6 5 Sur 8 Sudeste 0 -- -- 70
2019-10-11 05:00:00 11.4 5 Sudeste 8 Sudeste 0 -- -- 70
2019-10-11 04:00:00 11.1 4 Sudeste 8 Sudeste 0 -- -- 71
2019-10-11 03:00:00 12.4 5 Este 8 Sudeste 0 -- -- 66
2019-10-11 02:00:00 11.9 6 Sudeste 9 Este 0 -- -- 68
2019-10-11 01:00:00 12.8 5 Sudeste 10 Este 0 -- -- 65
2019-10-11 00:00:00 12.1 5 Sudeste 8 Este 0 -- -- 67
2019-10-10 23:00:00 14.1 3 Sudeste 5 Este 0 -- -- 59
2019-10-10 22:00:00 15.2 4 Sur 8 Sur 0 -- -- 56
2019-10-10 21:00:00 16.3 6 Este 11 Nordeste 0 -- -- 53
2019-10-10 20:00:00 21.6 7 Nordeste 10 Nordeste 0 -- -- 42
2019-10-10 19:00:00 24.9 3 Norte 10 Este 0 -- -- 34
2019-10-10 18:00:00 25.1 4 Nordeste 15 Nordeste 0 -- -- 32
2019-10-10 17:00:00 24.8 5 Sudeste 15 Este 0 -- -- 32
2019-10-10 16:00:00 23.9 8 Nordeste 22 Nordeste 0 -- -- 34
2019-10-10 15:00:00 22.7 7 Nordeste 23 Este 0 -- -- 38
2019-10-10 14:00:00 21.3 10 Este 23 Nordeste 0 -- -- 43
2019-10-10 13:00:00 19.2 16 Este 27 Este 0 -- -- 47
2019-10-10 12:00:00 15.9 13 Nordeste 26 Nordeste 0 -- -- 58
2019-10-10 11:00:00 13 15 Este 30 Este 0 -- -- 67
2019-10-10 10:00:00 9.9 13 Este 22 Nordeste 0 -- -- 77
2019-10-10 09:00:00 7.9 10 Nordeste 17 Nordeste 0 -- -- 84
2019-10-10 08:00:00 8.1 10 Nordeste 17 Nordeste 0 -- -- 82
2019-10-10 07:00:00 8.4 9 Nordeste 17 Este 0 -- -- 81
2019-10-10 06:00:00 9.1 9 Nordeste 15 Nordeste 0 -- -- 78
2019-10-10 05:00:00 9.3 8 Nordeste 14 Nordeste 0 -- -- 74
2019-10-10 04:00:00 9.9 7 Nordeste 14 Nordeste 0 -- -- 68
2019-10-10 03:00:00 10.6 8 Nordeste 13 Nordeste 0 -- -- 67
2019-10-10 02:00:00 10.6 5 Norte 10 Norte 0 -- -- 70
2019-10-10 01:00:00 10.2 2 Norte 6 Norte 0 -- -- 70
2019-10-10 00:00:00 11.1 3 Norte 7 Norte 0 -- -- 65
2019-10-09 23:00:00 11.4 4 Nordeste 8 Nordeste 0 -- -- 65
2019-10-09 22:00:00 12.9 0 Calma 7 Noroeste 0 -- -- 57
2019-10-09 21:00:00 15.5 5 Noroeste 9 Noroeste 0 -- -- 51
2019-10-09 20:00:00 18.6 6 Noroeste 19 Noroeste 0 -- -- 44
2019-10-09 19:00:00 21.3 13 Noroeste 23 Noroeste 0 -- -- 40
2019-10-09 18:00:00 22.2 9 Norte 20 Norte 0 -- -- 37
2019-10-09 17:00:00 22.2 10 Norte 22 Nordeste 0 -- -- 35
2019-10-09 16:00:00 21.7 10 Norte 23 Nordeste 0 -- -- 44
2019-10-09 15:00:00 20.6 8 Norte 17 Norte 0 -- -- 48
2019-10-09 14:00:00 18.2 8 Norte 17 Norte 0 -- -- 62
2019-10-09 13:00:00 16.4 8 Norte 16 Noroeste 0 -- -- 64
2019-10-09 12:00:00 14.7 7 Norte 14 Norte 0 -- -- 64
2019-10-09 11:00:00 12.5 3 Norte 9 Noroeste 0 -- -- 70
2019-10-09 10:00:00 10.9 3 Sudeste 10 Oeste 0 -- -- 81
2019-10-09 09:00:00 8.5 6 Noroeste 16 Oeste 0 -- -- 87
2019-10-09 08:00:00 9.7 6 Noroeste 12 Noroeste 0 -- -- 90
2019-10-09 07:00:00 11.1 2 Nordeste 20 Norte 0 -- -- 87
2019-10-09 06:00:00 12.9 9 Norte 20 Noroeste 0 -- -- 85
2019-10-09 05:00:00 15.3 14 Noroeste 23 Noroeste 0 -- -- 89
2019-10-09 04:00:00 15.1 2 Sur 5 Sudeste 0 -- -- 91
2019-10-09 03:00:00 15.9 0 Calma 8 Oeste 0 -- -- 89
2019-10-09 02:00:00 15.1 5 Noroeste 8 Oeste 0 -- -- 90
2019-10-09 01:00:00 16.4 8 Oeste 13 Oeste 0 -- -- 85
2019-10-09 00:00:00 16.7 10 Oeste 15 Oeste 0 -- -- 83
2019-10-08 23:00:00 17.8 13 Oeste 18 Oeste 0 -- -- 79
2019-10-08 22:00:00 18.8 6 Noroeste 18 Noroeste 0 -- -- 72
2019-10-08 21:00:00 20.7 10 Noroeste 18 Noroeste 0 -- -- 63
2019-10-08 20:00:00 23 12 Noroeste 24 Noroeste 0 -- -- 54
2019-10-08 19:00:00 25.5 15 Noroeste 26 Noroeste 0 -- -- 46
2019-10-08 18:00:00 27.1 12 Noroeste 22 Noroeste 0 -- -- 40
2019-10-08 17:00:00 27.1 12 Noroeste 23 Oeste 0 -- -- 39
2019-10-08 16:00:00 26.9 8 Noroeste 21 Noroeste 0 -- -- 41
2019-10-08 15:00:00 25.9 10 Noroeste 19 Oeste 0 -- -- 46
2019-10-08 14:00:00 24.9 9 Noroeste 18 Oeste 0 -- -- 43
2019-10-08 13:00:00 23.3 8 Oeste 15 Noroeste 0 -- -- 45
2019-10-08 12:00:00 21.9 8 Noroeste 12 Oeste 0 -- -- 47
2019-10-08 11:00:00 19.1 6 Sur 13 Sur 0 -- -- 56
2019-10-08 10:00:00 15.9 6 Sur 9 Sur 0 -- -- 63
2019-10-08 09:00:00 12.2 3 Sudeste 10 Sur 0 -- -- 73
2019-10-08 08:00:00 11.2 5 Sur 9 Sur 0 -- -- 74
2019-10-08 07:00:00 10.8 3 Sudeste 8 Sur 0 -- -- 77
2019-10-08 06:00:00 10.9 0 Calma 4 Sudeste 0 -- -- 78
2019-10-08 05:00:00 11.4 0 Calma 4 Sudoeste 0 -- -- 76
2019-10-08 04:00:00 12.1 0 Calma 5 Sur 0 -- -- 70
2019-10-08 03:00:00 12.8 3 Sudeste 8 Sur 0 -- -- 68
2019-10-08 02:00:00 13.1 3 Sur 6 Sudeste 0 -- -- 66
2019-10-08 01:00:00 13.1 0 Calma 6 Oeste 0 -- -- 65
2019-10-08 00:00:00 14.5 0 Calma 5 Noroeste 0 -- -- 57
2019-10-07 23:00:00 16.1 3 Oeste 5 Sudoeste 0 -- -- 48
2019-10-07 22:00:00 16.4 0 Calma 5 Noroeste 0 -- -- 46
2019-10-07 21:00:00 19.5 4 Noroeste 7 Noroeste 0 -- -- 42
2019-10-07 20:00:00 23.6 5 Noroeste 15 Noroeste 0 -- -- 38
2019-10-07 19:00:00 27 7 Noroeste 15 Noroeste 0 -- -- 32
2019-10-07 18:00:00 27.2 6 Norte 20 Noroeste 0 -- -- 31
2019-10-07 17:00:00 27.5 8 Noroeste 17 Noroeste 0 -- -- 29
2019-10-07 16:00:00 26.9 7 Norte 14 Norte 0 -- -- 28
2019-10-07 15:00:00 25.6 5 Norte 10 Norte 0 -- -- 25
2019-10-07 14:00:00 24.1 4 Nordeste 15 Nordeste 0 -- -- 26
2019-10-07 13:00:00 22.4 6 Nordeste 14 Este 0 -- -- 34
2019-10-07 12:00:00 20.4 5 Sudeste 10 Sudeste 0 -- -- 45
2019-10-07 11:00:00 17.9 4 Nordeste 12 Este 0 -- -- 59
2019-10-07 10:00:00 14 7 Este 11 Este 0 -- -- 74
2019-10-07 09:00:00 9.6 3 Este 5 Sudeste 0 -- -- 89
2019-10-07 08:00:00 8.6 0 Calma 4 Este 0 -- -- 87
2019-10-07 07:00:00 9.5 3 Sudeste 5 Este 0 -- -- 85
2019-10-07 06:00:00 9.8 4 Sudeste 9 Este 0 -- -- 86
2019-10-07 05:00:00 10.4 3 Sudeste 4 Sudeste 0 -- -- 85
2019-10-07 04:00:00 10.6 2 Sur 6 Sur 0 -- -- 83
2019-10-07 03:00:00 11.3 4 Sur 8 Sur 0 -- -- 80
2019-10-07 02:00:00 11.5 0 Calma 6 Noroeste 0 -- -- 77
2019-10-07 01:00:00 12.6 3 Oeste 7 Norte 0 -- -- 75
2019-10-07 00:00:00 12.1 0 Calma 5 Noroeste 0 -- -- 73
2019-10-06 23:00:00 12.5 2 Oeste 5 Noroeste 0 -- -- 65
2019-10-06 22:00:00 13.9 0 Calma 7 Nordeste 0 -- -- 62
2019-10-06 21:00:00 14.4 2 Este 5 Noroeste 0 -- -- 59
2019-10-06 20:00:00 19.9 4 Noroeste 14 Noroeste 0 -- -- 42
2019-10-06 19:00:00 23.2 9 Noroeste 21 Noroeste 0 -- -- 37
2019-10-06 18:00:00 24.2 12 Noroeste 19 Noroeste 0 -- -- 33
2019-10-06 17:00:00 24.5 8 Noroeste 18 Norte 0 -- -- 36
2019-10-06 16:00:00 23.4 4 Norte 13 Nordeste 0 -- -- 40
2019-10-06 15:00:00 22.4 5 Este 14 Este 0 -- -- 43
2019-10-06 14:00:00 20.7 5 Norte 15 Este 0 -- -- 48
2019-10-06 13:00:00 18.5 7 Este 12 Sudeste 0 -- -- 55
2019-10-06 12:00:00 16 5 Nordeste 12 Nordeste 0 -- -- 72
2019-10-06 11:00:00 13.4 6 Norte 10 Norte 0 -- -- 86
2019-10-06 10:00:00 9.7 0 Calma 5 Sur 0 -- -- 97
2019-10-06 09:00:00 8.4 4 Sur 9 Sudeste 0 -- -- 97
2019-10-06 08:00:00 7.7 4 Sur 8 Sudoeste 0 -- -- 96
2019-10-06 07:00:00 8.2 3 Sur 10 Sur 0 -- -- 96
2019-10-06 06:00:00 8.2 4 Sur 12 Sur 0 -- -- 95
2019-10-06 05:00:00 8.7 2 Sudoeste 7 Sur 0 -- -- 94
2019-10-06 04:00:00 9.3 3 Sudoeste 11 Oeste 0 -- -- 91
2019-10-06 03:00:00 9.8 0 Calma 10 Oeste 0 -- -- 92
2019-10-06 02:00:00 8.7 0 Calma 4 Sur 0 -- -- 89
2019-10-06 01:00:00 10.5 5 Oeste 9 Oeste 0 -- -- 82
2019-10-06 00:00:00 12 2 Sudoeste 13 Oeste 0 -- -- 76
2019-10-05 23:00:00 14.8 7 Oeste 13 Oeste 0 -- -- 68
2019-10-05 22:00:00 12.1 5 Oeste 11 Oeste 0 -- -- 76
2019-10-05 21:00:00 13.2 0 Calma 3 Sudeste 0 -- -- 69
2019-10-05 20:00:00 18 0 Calma 13 Oeste 0 -- -- 50
2019-10-05 19:00:00 21.9 10 Noroeste 16 Oeste 0 -- -- 43
2019-10-05 18:00:00 21.9 12 Oeste 21 Oeste 0 -- -- 45
2019-10-05 17:00:00 20.8 10 Oeste 18 Oeste 0 -- -- 51
2019-10-05 16:00:00 18.3 6 Noroeste 16 Noroeste 0 -- -- 68
2019-10-05 15:00:00 16.1 6 Oeste 14 Sudoeste 0 -- -- 81
2019-10-05 14:00:00 14.4 6 Noroeste 12 Oeste 0 -- -- 89
2019-10-05 13:00:00 13.1 3 Norte 10 Noroeste 0 -- -- 97
2019-10-05 12:00:00 11.9 3 Noroeste 10 Norte 0 -- -- 97
2019-10-05 11:00:00 11.2 3 Noroeste 6 Noroeste 0 -- -- 97
2019-10-05 10:00:00 10.7 0 Calma 2 Norte 0 -- -- 97
2019-10-05 09:00:00 10.3 0 Calma 3 Oeste 0 -- -- 97
2019-10-05 08:00:00 10.4 0 Calma 5 Oeste 0 -- -- 97
2019-10-05 07:00:00 10.7 0 Calma 5 Noroeste 0 -- -- 97
2019-10-05 06:00:00 8.9 0 Calma 5 Oeste 0 -- -- 97
2019-10-05 05:00:00 8.6 0 Calma 5 Sur 0 -- -- 94
2019-10-05 04:00:00 9.4 2 Sudoeste 5 Oeste 0 -- -- 91
2019-10-05 03:00:00 11 2 Sudeste 9 Sudoeste 0 -- -- 92
2019-10-05 02:00:00 11.5 4 Sur 7 Sudoeste 0 -- -- 90
2019-10-05 01:00:00 13.1 6 Oeste 9 Oeste 0 -- -- 86
2019-10-05 00:00:00 14.5 7 Oeste 12 Oeste 0 -- -- 81
2019-10-04 23:00:00 15.1 4 Norte 10 Oeste 0 -- -- 75
2019-10-04 22:00:00 15.4 0 Calma 12 Oeste 0 -- -- 69
2019-10-04 21:00:00 18.4 7 Oeste 12 Noroeste 0 -- -- 62
2019-10-04 20:00:00 21.2 6 Oeste 17 Oeste 0 -- -- 51
2019-10-04 19:00:00 23 12 Oeste 20 Oeste 0 -- -- 45
2019-10-04 18:00:00 23.7 10 Oeste 26 Oeste 0 -- -- 46
2019-10-04 17:00:00 23.2 9 Oeste 17 Oeste 0 -- -- 51
2019-10-04 16:00:00 22.2 6 Oeste 18 Oeste 0 -- -- 56
2019-10-04 15:00:00 20.7 7 Noroeste 18 Noroeste 0 -- -- 62
2019-10-04 14:00:00 19.8 9 Noroeste 19 Noroeste 0 -- -- 67
2019-10-04 13:00:00 20.1 9 Oeste 15 Oeste 0 -- -- 66
2019-10-04 12:00:00 18 3 Oeste 9 Oeste 0 -- -- 80
2019-10-04 11:00:00 16.2 2 Oeste 5 Oeste 0 -- -- 90
2019-10-04 10:00:00 14.1 0 Calma 6 Sur 0 -- -- 95
2019-10-04 09:00:00 12.9 0 Calma 5 Sur 0 -- -- 96
2019-10-04 08:00:00 12.5 2 Sur 8 Sur 0 -- -- 96
2019-10-04 07:00:00 11.5 7 Sur 12 Sudoeste 0 -- -- 95
2019-10-04 06:00:00 11.6 7 Sur 11 Sur 0 -- -- 95
2019-10-04 05:00:00 12 6 Sur 10 Sur 0 -- -- 95
2019-10-04 04:00:00 11.1 4 Sudeste 6 Sur 0 -- -- 91
2019-10-04 03:00:00 12.9 4 Sudoeste 9 Sur 0 -- -- 87
2019-10-04 02:00:00 13.8 5 Sur 11 Oeste 0 -- -- 83
2019-10-04 01:00:00 14.4 6 Sudoeste 10 Oeste 0 -- -- 83
2019-10-04 00:00:00 13.8 2 Sur 11 Oeste 0 -- -- 80
2019-10-03 23:00:00 16 8 Oeste 12 Oeste 0 -- -- 75
2019-10-03 22:00:00 17.2 8 Noroeste 23 Oeste 0 -- -- 69
2019-10-03 21:00:00 19.4 11 Oeste 18 Oeste 0 -- -- 56
2019-10-03 20:00:00 22.2 6 Oeste 15 Noroeste 0 -- -- 37
2019-10-03 19:00:00 24.3 9 Noroeste 20 Noroeste 0 -- -- 33
2019-10-03 18:00:00 24.2 10 Noroeste 23 Norte 0 -- -- 36
2019-10-03 17:00:00 24.4 12 Noroeste 24 Noroeste 0 -- -- 22
2019-10-03 16:00:00 23.6 13 Noroeste 25 Noroeste 0 -- -- 25
2019-10-03 15:00:00 22.5 11 Noroeste 24 Oeste 0 -- -- 31
2019-10-03 14:00:00 21 13 Noroeste 22 Noroeste 0 -- -- 41
2019-10-03 13:00:00 19 9 Oeste 17 Oeste 0 -- -- 56
2019-10-03 12:00:00 17.1 5 Oeste 10 Oeste 0 -- -- 64
2019-10-03 11:00:00 14.6 2 Sur 8 Sur 0 -- -- 74
2019-10-03 10:00:00 11.3 4 Sur 10 Sur 0 -- -- 83
2019-10-03 09:00:00 7.5 4 Sur 6 Sur 0 -- -- 94
2019-10-03 08:00:00 6.7 2 Sur 5 Sur 0 -- -- 91
2019-10-03 07:00:00 6.6 0 Calma 2 Sudoeste 0 -- -- 91
2019-10-03 06:00:00 6.8 0 Calma 2 Sudoeste 0 -- -- 91
2019-10-03 05:00:00 7.3 2 Sur 4 Sur 0 -- -- 90
2019-10-03 04:00:00 8.3 0 Calma 5 Oeste 0 -- -- 83
2019-10-03 03:00:00 8.4 0 Calma 6 Sudoeste 0 -- -- 79
2019-10-03 02:00:00 9.1 0 Calma 4 Sudeste 0 -- -- 75
2019-10-03 01:00:00 11.1 7 Este 10 Este 0 -- -- 69
2019-10-03 00:00:00 10.4 6 Este 9 Este 0 -- -- 72
2019-10-02 23:00:00 10.3 0 Calma 2 Este 0 -- -- 71
2019-10-02 22:00:00 11 0 Calma 2 Este 0 -- -- 70
2019-10-02 21:00:00 13.1 0 Calma 4 Noroeste 0 -- -- 62
2019-10-02 20:00:00 18.8 4 Noroeste 13 Noroeste 0 -- -- 46
2019-10-02 19:00:00 21 7 Noroeste 16 Norte 0 -- -- 41
2019-10-02 18:00:00 21 8 Norte 19 Norte 0 -- -- 41
2019-10-02 17:00:00 20.6 6 Norte 18 Noroeste 0 -- -- 42
2019-10-02 16:00:00 20.2 8 Noroeste 17 Noroeste 0 -- -- 44
2019-10-02 15:00:00 18.8 5 Noroeste 19 Norte 0 -- -- 50
2019-10-02 14:00:00 17.3 8 Norte 17 Oeste 0 -- -- 54
2019-10-02 13:00:00 15.7 6 Norte 18 Norte 0 -- -- 60
2019-10-02 12:00:00 14.3 7 Norte 20 Noroeste 0 -- -- 67
2019-10-02 11:00:00 12.8 9 Noroeste 15 Noroeste 0 -- -- 76
2019-10-02 10:00:00 10.5 4 Sudoeste 8 Oeste 0 -- -- 91
2019-10-02 09:00:00 7.5 2 Sur 10 Sudoeste 0 -- -- 96
2019-10-02 08:00:00 6.3 0 Calma 11 Oeste 0 -- -- 89
2019-10-02 07:00:00 8 4 Sudoeste 12 Oeste 0 -- -- 93
2019-10-02 06:00:00 9.2 8 Oeste 15 Oeste 0 -- -- 92
2019-10-02 05:00:00 9.4 10 Oeste 14 Oeste 0 -- -- 92
2019-10-02 04:00:00 10.2 6 Noroeste 14 Oeste 0 -- -- 88
2019-10-02 03:00:00 10.9 8 Oeste 12 Sudoeste 0 -- -- 87
2019-10-02 02:00:00 11.9 9 Oeste 18 Oeste 0 -- -- 82
2019-10-02 01:00:00 12.1 4 Oeste 12 Oeste 0 -- -- 81
2019-10-02 00:00:00 13.1 5 Oeste 18 Noroeste 0 -- -- 77
2019-10-01 23:00:00 14.5 12 Noroeste 22 Noroeste 0 -- -- 74
2019-10-01 22:00:00 15.5 11 Noroeste 28 Noroeste 0 -- -- 67
2019-10-01 21:00:00 17 14 Noroeste 28 Noroeste 0 -- -- 58
2019-10-01 20:00:00 19 14 Noroeste 32 Noroeste 0 -- -- 48
2019-10-01 19:00:00 21.3 18 Noroeste 35 Noroeste 0 -- -- 43
2019-10-01 18:00:00 22.1 19 Noroeste 34 Noroeste 0 -- -- 45
2019-10-01 17:00:00 22.4 15 Noroeste 36 Noroeste 0 -- -- 46
2019-10-01 16:00:00 21.5 16 Noroeste 33 Noroeste 0 -- -- 47
2019-10-01 15:00:00 19 13 Noroeste 26 Oeste 0 -- -- 61
2019-10-01 14:00:00 18.2 19 Noroeste 33 Oeste 0 -- -- 67
2019-10-01 13:00:00 16.2 9 Oeste 21 Oeste 0 -- -- 83
2019-10-01 12:00:00 16.7 14 Oeste 25 Oeste 0 -- -- 74
2019-10-01 11:00:00 16.2 8 Oeste 17 Oeste 0 -- -- 75
2019-10-01 10:00:00 15.1 8 Sudoeste 12 Sudoeste 0 -- -- 84
2019-10-01 09:00:00 13.4 6 Oeste 15 Oeste 0 -- -- 92
2019-10-01 08:00:00 13.8 8 Oeste 13 Noroeste 0 -- -- 92
2019-10-01 07:00:00 13.5 7 Noroeste 12 Oeste 0 -- -- 92
2019-10-01 06:00:00 13.8 0 Calma 11 Oeste 0 -- -- 92
2019-10-01 05:00:00 14.7 8 Noroeste 20 Oeste 0 -- -- 93
2019-10-01 04:00:00 15.1 17 Oeste 28 Oeste 0 -- -- 93
2019-10-01 03:00:00 14.9 5 Sudoeste 12 Sudoeste 0 -- -- 93
2019-10-01 02:00:00 15.4 2 Sudoeste 13 Oeste 0 -- -- 89
2019-10-01 01:00:00 16.3 7 Oeste 14 Oeste 0 -- -- 86
2019-10-01 00:00:00 17.3 8 Oeste 21 Oeste 0 -- -- 80
2019-09-30 23:00:00 19.1 12 Oeste 20 Oeste 0 -- -- 71
2019-09-30 22:00:00 20.5 10 Oeste 19 Oeste 0 -- -- 63
2019-09-30 21:00:00 22.2 10 Oeste 17 Oeste 0 -- -- 46
2019-09-30 20:00:00 25.3 10 Oeste 24 Sudoeste 0 -- -- 39
2019-09-30 19:00:00 27.3 15 Sudoeste 24 Sudoeste 0 -- -- 29
2019-09-30 18:00:00 28.1 15 Sudoeste 31 Sudoeste 0 -- -- 28
2019-09-30 17:00:00 28.3 14 Oeste 33 Oeste 0 -- -- 31
2019-09-30 16:00:00 27.3 11 Oeste 24 Oeste 0 -- -- 38
2019-09-30 15:00:00 26.1 12 Oeste 21 Oeste 0 -- -- 42
2019-09-30 14:00:00 25 10 Sudoeste 21 Oeste 0 -- -- 46
2019-09-30 13:00:00 23.5 6 Oeste 24 Sur 0 -- -- 52
2019-09-30 12:00:00 21.2 3 Este 12 Nordeste 0 -- -- 65
2019-09-30 11:00:00 18.6 4 Nordeste 6 Este 0 -- -- 75
2019-09-30 10:00:00 15.5 4 Este 8 Este 0 -- -- 83
2019-09-30 09:00:00 11.4 3 Sudeste 8 Este 0 -- -- 96
2019-09-30 08:00:00 10.8 5 Este 7 Este 0 -- -- 95
2019-09-30 07:00:00 10.3 3 Sudeste 6 Este 0 -- -- 94
2019-09-30 06:00:00 11.3 2 Este 5 Sur 0 -- -- 93
2019-09-30 05:00:00 11.7 3 Sur 5 Sur 0 -- -- 92
2019-09-30 04:00:00 12.2 4 Sudeste 9 Sur 0 -- -- 90
2019-09-30 03:00:00 12.4 4 Sudeste 7 Sur 0 -- -- 88
2019-09-30 02:00:00 12.7 2 Sudeste 7 Sur 0 -- -- 86
2019-09-30 01:00:00 13.3 0 Calma 5 Noroeste 0 -- -- 83
2019-09-30 00:00:00 15.1 6 Noroeste 10 Oeste 0 -- -- 74
2019-09-29 23:00:00 16.3 5 Oeste 12 Noroeste 0 -- -- 66
2019-09-29 22:00:00 18.2 7 Noroeste 13 Oeste 0 -- -- 56
2019-09-29 21:00:00 20.5 10 Oeste 19 Oeste 0 -- -- 47
2019-09-29 20:00:00 24.2 10 Oeste 18 Oeste 0 -- -- 37
2019-09-29 19:00:00 26.6 10 Oeste 22 Sudoeste 0 -- -- 31
2019-09-29 18:00:00 27.2 7 Oeste 18 Oeste 0 -- -- 31
2019-09-29 17:00:00 26.5 6 Noroeste 22 Noroeste 0 -- -- 33
2019-09-29 16:00:00 25.8 6 Oeste 23 Noroeste 0 -- -- 35
2019-09-29 15:00:00 25 8 Oeste 18 Oeste 0 -- -- 35
2019-09-29 14:00:00 23.8 7 Noroeste 17 Noroeste 0 -- -- 36
2019-09-29 13:00:00 22.1 7 Noroeste 18 Oeste 0 -- -- 39
2019-09-29 12:00:00 20.1 9 Oeste 17 Oeste 0 -- -- 46
2019-09-29 11:00:00 16.8 5 Oeste 13 Oeste 0 -- -- 72
2019-09-29 10:00:00 14.4 5 Sur 9 Sur 0 -- -- 83
2019-09-29 09:00:00 10.1 4 Sur 8 Sur 0 -- -- 94
2019-09-29 08:00:00 8.9 3 Sur 9 Sur 0 -- -- 90
2019-09-29 07:00:00 9 4 Sudeste 9 Norte 0 -- -- 90
2019-09-29 06:00:00 9.6 0 Calma 16 Norte 0 -- -- 87
2019-09-29 05:00:00 11.6 7 Sur 15 Sur 0 -- -- 86
2019-09-29 04:00:00 11.6 4 Sudoeste 9 Sur 0 -- -- 86
2019-09-29 03:00:00 12.1 7 Sur 10 Sur 0 -- -- 84
2019-09-29 02:00:00 11.4 0 Calma 5 Sudoeste 0 -- -- 80
2019-09-29 01:00:00 12.1 0 Calma 5 Oeste 0 -- -- 75
2019-09-29 00:00:00 14.6 0 Calma 10 Oeste 0 -- -- 65
2019-09-28 23:00:00 15.4 3 Sudoeste 9 Sudoeste 0 -- -- 61
2019-09-28 22:00:00 16.2 7 Sur 11 Sudoeste 0 -- -- 54
2019-09-28 21:00:00 17.3 0 Calma 6 Norte 0 -- -- 53
2019-09-28 20:00:00 24 4 Norte 15 Norte 0 -- -- 38
2019-09-28 19:00:00 26.5 9 Noroeste 14 Noroeste 0 -- -- 32
2019-09-28 18:00:00 27 6 Oeste 18 Oeste 0 -- -- 31
2019-09-28 17:00:00 26.2 5 Norte 16 Oeste 0 -- -- 32
2019-09-28 16:00:00 25.4 5 Oeste 16 Noroeste 0 -- -- 34
2019-09-28 15:00:00 23.6 5 Norte 13 Noroeste 0 -- -- 40
2019-09-28 14:00:00 22.1 4 Este 10 Este 0 -- -- 46
2019-09-28 13:00:00 20.6 2 Sudeste 9 Sudeste 0 -- -- 61
2019-09-28 12:00:00 18.2 4 Sudeste 12 Nordeste 0 -- -- 69
2019-09-28 11:00:00 16 4 Este 10 Este 0 -- -- 79
2019-09-28 10:00:00 13.2 3 Este 9 Este 0 -- -- 93
2019-09-28 09:00:00 9.1 5 Este 8 Este 0 -- -- 98
2019-09-28 08:00:00 8 6 Este 9 Este 0 -- -- 96
2019-09-28 07:00:00 8.3 4 Sudeste 6 Sudeste 0 -- -- 96
2019-09-28 06:00:00 8.1 2 Nordeste 4 Sudeste 0 -- -- 95
2019-09-28 05:00:00 8.9 0 Calma 5 Sudeste 0 -- -- 93
2019-09-28 04:00:00 9.1 3 Sudeste 6 Sudeste 0 -- -- 92
2019-09-28 03:00:00 10.1 4 Sudeste 8 Sudeste 0 -- -- 92
2019-09-28 02:00:00 9.8 3 Sudeste 5 Sur 0 -- -- 90
2019-09-28 01:00:00 10.6 0 Calma 6 Este 0 -- -- 87
2019-09-28 00:00:00 12.3 0 Calma 6 Noroeste 0 -- -- 83
2019-09-27 23:00:00 14.5 3 Norte 13 Oeste 0 -- -- 78
2019-09-27 22:00:00 15.6 7 Noroeste 14 Oeste 0 -- -- 75
2019-09-27 21:00:00 17.4 10 Noroeste 19 Noroeste 0 -- -- 69
2019-09-27 20:00:00 20.4 13 Noroeste 28 Noroeste 0 -- -- 59
2019-09-27 19:00:00 22.9 13 Noroeste 23 Noroeste 0 -- -- 49
2019-09-27 18:00:00 23.3 15 Noroeste 27 Noroeste 0 -- -- 47
2019-09-27 17:00:00 23.4 16 Oeste 29 Noroeste 0 -- -- 44
2019-09-27 16:00:00 22.8 14 Noroeste 25 Norte 0 -- -- 47
2019-09-27 15:00:00 22.4 12 Noroeste 22 Noroeste 0 -- -- 44
2019-09-27 14:00:00 21.2 11 Noroeste 23 Noroeste 0 -- -- 49
2019-09-27 13:00:00 19.8 9 Noroeste 19 Norte 0 -- -- 60
2019-09-27 12:00:00 18.3 8 Noroeste 15 Noroeste 0 -- -- 62
2019-09-27 11:00:00 16.2 8 Noroeste 12 Noroeste 0 -- -- 71
2019-09-27 10:00:00 13.3 0 Calma 3 Sudoeste 0 -- -- 89
2019-09-27 09:00:00 8 0 Calma 6 Sudeste 0 -- -- 95
2019-09-27 08:00:00 7.3 3 Norte 8 Sur 0 -- -- 91
2019-09-27 07:00:00 8.8 5 Sur 10 Sur 0 -- -- 92
2019-09-27 06:00:00 9.1 3 Sur 9 Sur 0 -- -- 93
2019-09-27 05:00:00 8.5 2 Sur 5 Sudoeste 0 -- -- 90
2019-09-27 04:00:00 9.1 0 Calma 7 Sur 0 -- -- 81
2019-09-27 03:00:00 10 5 Sur 8 Sur 0 -- -- 81
2019-09-27 02:00:00 10.2 0 Calma 6 Sur 0 -- -- 75
2019-09-27 01:00:00 11.6 0 Calma 6 Oeste 0 -- -- 70
2019-09-27 00:00:00 13.6 0 Calma 12 Oeste 0 -- -- 62
2019-09-26 23:00:00 14.6 4 Sudoeste 12 Noroeste 0 -- -- 55
2019-09-26 22:00:00 16.6 3 Noroeste 14 Oeste 0 -- -- 46
2019-09-26 21:00:00 16.6 2 Oeste 8 Norte 0 -- -- 54
2019-09-26 20:00:00 22.7 5 Noroeste 15 Noroeste 0 -- -- 38
2019-09-26 19:00:00 24.5 10 Noroeste 19 Oeste 0 -- -- 35
2019-09-26 18:00:00 24.7 8 Noroeste 22 Noroeste 0 -- -- 35
2019-09-26 17:00:00 24.5 13 Noroeste 25 Noroeste 0 -- -- 31
2019-09-26 16:00:00 23.8 12 Noroeste 23 Noroeste 0 -- -- 42
2019-09-26 15:00:00 23.4 9 Oeste 19 Noroeste 0 -- -- 39
2019-09-26 14:00:00 21.8 8 Oeste 15 Oeste 0 -- -- 43
2019-09-26 13:00:00 19.9 5 Oeste 10 Oeste 0 -- -- 52
2019-09-26 12:00:00 17.1 5 Oeste 11 Noroeste 0 -- -- 72
2019-09-26 11:00:00 15.2 3 Noroeste 7 Noroeste 0 -- -- 82
2019-09-26 10:00:00 12.7 0 Calma 8 Sur 0 -- -- 91
2019-09-26 09:00:00 9.3 3 Sudeste 7 Sur 0 -- -- 97
2019-09-26 08:00:00 8.5 5 Sur 8 Sur 0 -- -- 96
2019-09-26 07:00:00 7.9 0 Calma 4 Sudeste 0 -- -- 94
2019-09-26 06:00:00 8.4 0 Calma 4 Sudeste 0 -- -- 92
2019-09-26 05:00:00 9.4 4 Sur 7 Sur 0 -- -- 93
2019-09-26 04:00:00 9.3 2 Sur 4 Sur 0 -- -- 91
2019-09-26 03:00:00 10.2 0 Calma 4 Oeste 0 -- -- 88
2019-09-26 02:00:00 12.1 3 Noroeste 11 Oeste 0 -- -- 83
2019-09-26 01:00:00 12.9 8 Oeste 12 Oeste 0 -- -- 81
2019-09-26 00:00:00 13.6 8 Oeste 13 Oeste 0 -- -- 77
2019-09-25 23:00:00 12.7 2 Oeste 9 Oeste 0 -- -- 79
2019-09-25 22:00:00 14.1 0 Calma 9 Noroeste 0 -- -- 72
2019-09-25 21:00:00 16.3 6 Noroeste 12 Oeste 0 -- -- 64
2019-09-25 20:00:00 18.8 6 Noroeste 15 Noroeste 0 -- -- 56
2019-09-25 19:00:00 20.3 10 Noroeste 22 Norte 0 -- -- 51
2019-09-25 18:00:00 20.9 10 Noroeste 21 Norte 0 -- -- 50
2019-09-25 17:00:00 20.4 12 Noroeste 22 Oeste 0 -- -- 49
2019-09-25 16:00:00 19.9 10 Noroeste 24 Oeste 0 -- -- 50
2019-09-25 15:00:00 18.9 10 Oeste 24 Noroeste 0 -- -- 55
2019-09-25 14:00:00 17.7 10 Noroeste 28 Oeste 0 -- -- 58
2019-09-25 13:00:00 16.5 12 Noroeste 24 Noroeste 0 -- -- 65
2019-09-25 12:00:00 15.2 14 Noroeste 25 Noroeste 0 -- -- 70
2019-09-25 11:00:00 13.2 16 Noroeste 24 Noroeste 0 -- -- 79
2019-09-25 10:00:00 11.4 10 Noroeste 17 Noroeste 0 -- -- 90
2019-09-25 09:00:00 7.7 0 Calma 3 Oeste 0 -- -- 97
2019-09-25 08:00:00 6.5 0 Calma 4 Sudeste 0 -- -- 94
2019-09-25 07:00:00 7.1 0 Calma 3 Este 0 -- -- 93
2019-09-25 06:00:00 8.2 0 Calma 8 Oeste 0 -- -- 91
2019-09-25 05:00:00 9.9 4 Noroeste 12 Oeste 0 -- -- 90
2019-09-25 04:00:00 11 10 Oeste 16 Oeste 0 -- -- 89
2019-09-25 03:00:00 11.9 8 Oeste 13 Oeste 0 -- -- 87
2019-09-25 02:00:00 12.3 4 Oeste 10 Oeste 0 -- -- 87
2019-09-25 01:00:00 12.6 7 Oeste 17 Oeste 0 -- -- 84
2019-09-25 00:00:00 12.7 11 Oeste 15 Oeste 0 -- -- 82
2019-09-24 23:00:00 13.7 7 Oeste 14 Oeste 0 -- -- 75
2019-09-24 22:00:00 14.9 9 Oeste 17 Oeste 0 -- -- 76
2019-09-24 21:00:00 16.3 10 Oeste 28 Oeste 0 -- -- 73
2019-09-24 20:00:00 17.8 18 Oeste 38 Oeste 0 -- -- 69
2019-09-24 19:00:00 19.4 20 Oeste 37 Oeste 0 -- -- 68
2019-09-24 18:00:00 20.9 22 Oeste 37 Sudoeste 0 -- -- 64
2019-09-24 17:00:00 21 23 Oeste 41 Oeste 0 -- -- 68
2019-09-24 16:00:00 18.6 21 Oeste 34 Oeste 0 -- -- 81
2019-09-24 15:00:00 19 21 Oeste 36 Oeste 0 -- -- 81
2019-09-24 14:00:00 19.2 19 Oeste 36 Oeste 0 -- -- 79
2019-09-24 13:00:00 18.3 9 Sudoeste 27 Sudoeste 0 -- -- 75
2019-09-24 12:00:00 17.4 15 Sudoeste 25 Sudoeste 0 -- -- 75
2019-09-24 11:00:00 15.7 8 Sur 14 Sur 0 -- -- 79
2019-09-24 10:00:00 12.5 10 Sur 17 Sur 0 -- -- 91
2019-09-24 09:00:00 12.1 0 Calma 18 Sur 0 -- -- 94
2019-09-24 08:00:00 11.2 12 Sur 17 Sudoeste 0 -- -- 94
2019-09-24 07:00:00 11.6 12 Sudoeste 21 Sudoeste 0 -- -- 93
2019-09-24 06:00:00 11.2 5 Sudoeste 8 Sudoeste 0 -- -- 95
2019-09-24 05:00:00 11.1 4 Oeste 6 Oeste 0 -- -- 95
2019-09-24 04:00:00 11.6 0 Calma 8 Oeste 0 -- -- 91
2019-09-24 03:00:00 12.6 6 Sudoeste 10 Sudoeste 0 -- -- 91
2019-09-24 02:00:00 13 3 Sudoeste 13 Oeste 0 -- -- 86
2019-09-24 01:00:00 13.7 4 Oeste 10 Oeste 0 -- -- 82
2019-09-24 00:00:00 14.1 7 Oeste 11 Oeste 0 -- -- 78
2019-09-23 23:00:00 14.9 5 Sudoeste 11 Oeste 0 -- -- 69
2019-09-23 22:00:00 16.4 10 Oeste 21 Oeste 0 -- -- 63
2019-09-23 21:00:00 17.3 9 Oeste 22 Oeste 0 -- -- 59
2019-09-23 20:00:00 20 13 Oeste 25 Oeste 0 -- -- 53
2019-09-23 19:00:00 21.6 15 Oeste 28 Oeste 0 -- -- 46
2019-09-23 18:00:00 22.3 14 Oeste 25 Oeste 0 -- -- 44
2019-09-23 17:00:00 22.3 9 Sudoeste 23 Oeste 0 -- -- 42
2019-09-23 16:00:00 21.6 12 Oeste 23 Oeste 0 -- -- 46
2019-09-23 15:00:00 20.7 11 Oeste 20 Oeste 0 -- -- 48
2019-09-23 14:00:00 18.7 11 Sudoeste 20 Oeste 0 -- -- 52
2019-09-23 13:00:00 16.9 10 Oeste 17 Oeste 0 -- -- 60
2019-09-23 12:00:00 15 9 Sudoeste 13 Sudoeste 0 -- -- 68
2019-09-23 11:00:00 13.3 7 Sudoeste 12 Sudoeste 0 -- -- 82
2019-09-23 10:00:00 11.1 6 Sur 10 Sur 0 -- -- 95
2019-09-23 09:00:00 9.3 3 Sudeste 10 Sudeste 0 -- -- 96
2019-09-23 08:00:00 8.7 0 Calma 8 Sur 0 -- -- 94
2019-09-23 07:00:00 9.5 4 Sudoeste 12 Sudoeste 0 -- -- 94
2019-09-23 06:00:00 9.7 8 Sudoeste 10 Sudoeste 0 -- -- 94
2019-09-23 05:00:00 9.7 4 Sudoeste 9 Sudoeste 0 -- -- 90
2019-09-23 04:00:00 10 5 Sudoeste 10 Sur -- -- -- 90
2019-09-23 03:00:00 10.5 4 Sudoeste 10 Sudoeste 0 -- -- 89
2019-09-23 02:00:00 10.9 4 Sur 7 Sudoeste 0 -- -- 87
2019-09-23 01:00:00 12 5 Sudoeste 14 Oeste 0 -- -- 84
2019-09-23 00:00:00 12.3 5 Oeste 12 Oeste 0 -- -- 82
2019-09-22 23:00:00 13.3 8 Oeste 14 Oeste 0 -- -- 76
2019-09-22 22:00:00 14.2 9 Oeste 14 Oeste 0 -- -- 69
2019-09-22 21:00:00 15.4 5 Sudoeste 17 Oeste 0 -- -- 64
2019-09-22 20:00:00 17.2 7 Oeste 25 Oeste 0 -- -- 57
2019-09-22 19:00:00 18.8 10 Oeste 27 Oeste 0 -- -- 50
2019-09-22 18:00:00 19.1 15 Oeste 28 Oeste 0 -- -- 48
2019-09-22 17:00:00 17.8 13 Oeste 28 Oeste 0 -- -- 54
2019-09-22 16:00:00 17.7 14 Noroeste 32 Oeste 0 -- -- 58
2019-09-22 15:00:00 18.3 19 Oeste 28 Oeste 0 -- -- 48
2019-09-22 14:00:00 17.8 19 Oeste 31 Oeste 0 -- -- 55
2019-09-22 13:00:00 16 12 Oeste 23 Oeste 0 -- -- 72
2019-09-22 12:00:00 14.9 18 Oeste 27 Oeste 0 -- -- 81
2019-09-22 11:00:00 13.3 11 Sudoeste 20 Sudoeste 0 -- -- 92
2019-09-22 10:00:00 11.6 8 Sur 13 Sur 0 -- -- 95
2019-09-22 09:00:00 10.9 3 Sur 7 Sudoeste 0 -- -- 96
2019-09-22 08:00:00 10 5 Sur 12 Sudoeste 0 -- -- 95
2019-09-22 07:00:00 10.8 6 Oeste 19 Sudoeste 0 -- -- 95
2019-09-22 06:00:00 10.4 12 Sudoeste 20 Sudoeste 0 -- -- 94
2019-09-22 05:00:00 10.5 12 Sudoeste 18 Sudoeste 0 -- -- 94
2019-09-22 04:00:00 10.9 7 Sudoeste 13 Oeste 0 -- -- 93
2019-09-22 03:00:00 11.3 8 Sudoeste 21 Oeste 0 -- -- 93
2019-09-22 02:00:00 11.5 15 Oeste 25 Oeste 0 -- -- 93
2019-09-22 01:00:00 12.3 13 Oeste 26 Oeste 0 -- -- 95
2019-09-22 00:00:00 12.8 18 Noroeste 38 Oeste 1.6 -- -- 95
2019-09-21 23:00:00 15.8 19 Oeste 31 Sudoeste 0.8 -- -- 94
2019-09-21 22:00:00 15.9 11 Sudoeste 27 Sur 0.4 -- -- 94
2019-09-21 21:00:00 16 15 Sur 38 Sur 0 -- -- 93
2019-09-21 20:00:00 16 16 Sur 35 Sudoeste 1.2 -- -- 94
2019-09-21 19:00:00 16.5 17 Sur 31 Sur 0.8 -- -- 91
2019-09-21 18:00:00 16.2 17 Sur 38 Sur 0.4 -- -- 91
2019-09-21 17:00:00 16.7 18 Sur 42 Sur 0 -- -- 87
2019-09-21 16:00:00 17.4 25 Sur 43 Sur 0 -- -- 81
2019-09-21 15:00:00 17.2 24 Sur 45 Sur 0 -- -- 80
2019-09-21 14:00:00 18.2 25 Sur 53 Sur 0 -- -- 77
2019-09-21 13:00:00 16.9 28 Sur 44 Sur 0 -- -- 81
2019-09-21 12:00:00 15.5 19 Sur 40 Sur 0 -- -- 88
2019-09-21 11:00:00 14.9 15 Sur 31 Sur 0.4 -- -- 91
2019-09-21 10:00:00 14.8 19 Sur 32 Sudeste 0 -- -- 89
2019-09-21 09:00:00 14.7 13 Sur 30 Sur 0.2 -- -- 89
2019-09-21 08:00:00 15.4 13 Sur 25 Sur 0 -- -- 84
2019-09-21 07:00:00 15 9 Sur 19 Sur 0 -- -- 84
2019-09-21 06:00:00 15.3 10 Sur 18 Sur 0 -- -- 82
2019-09-21 05:00:00 15.7 9 Sur 23 Sur 0 -- -- 80
2019-09-21 04:00:00 15.8 12 Sur 21 Sur 0 -- -- 79
2019-09-21 03:00:00 15.3 7 Sur 15 Sur 0 -- -- 78
2019-09-21 02:00:00 14.9 7 Sur 12 Sur 0 -- -- 77
2019-09-21 01:00:00 14.3 5 Sur 9 Sur 0 -- -- 79
2019-09-21 00:00:00 16.2 6 Sur 12 Sudoeste 0 -- -- 70
2019-09-20 23:00:00 17.8 5 Sudoeste 19 Sudoeste 0 -- -- 70
2019-09-20 22:00:00 18.7 12 Sudoeste 18 Oeste 0 -- -- 68
2019-09-20 21:00:00 19.7 9 Oeste 22 Sudoeste 0 -- -- 64
2019-09-20 20:00:00 21.6 14 Sudoeste 27 Sudoeste 0 -- -- 55
2019-09-20 19:00:00 22.2 17 Sudoeste 33 Sur 0 -- -- 47
2019-09-20 18:00:00 23.5 16 Sur 33 Sudoeste 0 -- -- 41
2019-09-20 17:00:00 24.2 17 Sur 37 Sudoeste 0 -- -- 45
2019-09-20 16:00:00 25.2 18 Sur 40 Sur 0 -- -- 43
2019-09-20 15:00:00 23.5 15 Sur 28 Sudeste 0 -- -- 48
2019-09-20 14:00:00 22.7 14 Sur 28 Sudeste 0 -- -- 52
2019-09-20 13:00:00 21.7 14 Sur 27 Sudoeste 0 -- -- 56
2019-09-20 12:00:00 20.8 12 Sur 28 Sur 0 -- -- 61
2019-09-20 11:00:00 19.5 11 Sur 19 Sur 0 -- -- 65
2019-09-20 10:00:00 16.5 6 Sudeste 9 Sudeste 0 -- -- 84
2019-09-20 09:00:00 14.9 6 Sur 10 Sur 0 -- -- 92
2019-09-20 08:00:00 14.2 4 Sur 9 Sur 0 -- -- 91
2019-09-20 07:00:00 14.5 4 Sur 6 Sur 0 -- -- 90
2019-09-20 06:00:00 15 4 Sur 6 Sur 0 -- -- 90
2019-09-20 05:00:00 15 3 Sudeste 6 Sudeste 0 -- -- 90
2019-09-20 04:00:00 15 4 Sudeste 6 Sudeste 0 -- -- 89
2019-09-20 03:00:00 15.3 3 Sudeste 6 Sur 0 -- -- 88
2019-09-20 02:00:00 15.4 2 Sur 5 Sur 0 -- -- 86
2019-09-20 01:00:00 17 3 Sur 12 Sudoeste 0 -- -- 80
2019-09-20 00:00:00 18 6 Sudoeste 12 Sudoeste 0 -- -- 76